Latest Coastal Weather Observations for Hogan Island

IDT60701

Issued at 9:05 pm EST Thursday 28 August 2014 (issued every 10 minutes, with the page automatically refreshed every 10 minutes)

About coastal observations | Map of coastal stations | Coastal observations for TAS | Marine services | Other Formats
Station Details ID: 200838 Name: HOGAN ISLAND Lat: -39.22 Lon: 146.98 Height: 116.0 m
Data from the previous 72 hours. | See also: Recent months at Hogan Island
Date/Time
EST
Temp

°C
Wind Pressure Rain
since 9am
mm
Weather Cloud Vis
km
Sea
Height
m
Swell
Dir
 
Speed
knots
Gust
knots
hPa Trend Height
m
Period
s
Dir
28/09:00pm 10.9 ENE 11 12 1028.8 - 0.0 - - - - - - -
28/08:30pm 10.9 ENE 11 12 1028.6 - 0.0 - - - - - - -
28/08:00pm 11.1 ENE 12 13 1028.4 - 0.0 - - - - - - -
28/07:30pm 11.0 ENE 13 15 1028.2 - 0.0 - - - - - - -
28/07:00pm 10.8 ENE 12 13 1028.4 - 0.0 - - - - - - -
28/06:30pm 10.8 ENE 12 13 1028.2 - 0.0 - - - - - - -
28/06:00pm 10.9 ENE 13 15 1028.1 - 0.0 - - - - - - -
28/05:30pm 11.1 ENE 12 14 1027.8 - 0.0 - - - - - - -
28/05:00pm 11.3 ENE 12 13 1027.7 - 0.0 - - - - - - -
28/04:30pm 12.5 ENE 11 13 1027.7 - 0.0 - - - - - - -
28/04:00pm 12.5 ENE 11 13 1027.7 - 0.0 - - - - - - -
28/03:30pm 13.7 ENE 11 13 1027.7 - 0.0 - - - - - - -
28/03:00pm 13.7 NE 12 13 1028.0 - 0.0 - - - - - - -
28/02:30pm 14.2 NE 11 13 1027.8 - 0.0 - - - - - - -
28/02:00pm 14.5 NE 11 13 1027.9 - 0.0 - - - - - - -
28/01:30pm 14.8 NE 12 14 1028.1 - 0.0 - - - - - - -
28/01:00pm 15.2 NE 12 15 1028.4 - 0.0 - - - - - - -
28/12:30pm 15.1 NNE 11 14 1028.6 - 0.0 - - - - - - -
28/12:00pm 15.3 NE 12 15 1029.1 - 0.0 - - - - - - -
28/11:30am 15.2 NE 12 15 1029.3 - 0.0 - - - - - - -
28/11:00am 15.6 NE 13 15 1029.4 - 0.0 - - - - - - -
28/10:30am 14.9 NE 14 16 1029.7 - 0.0 - - - - - - -
28/10:00am 14.6 NE 12 16 1029.8 - 0.0 - - - - - - -
28/09:30am 13.8 NE 14 17 1029.8 - 0.0 - - - - - - -
28/09:00am 13.4 NE 15 18 1029.7 - 0.2 - - - - - - -
28/08:30am 13.0 NE 13 16 1029.7 - 0.2 - - - - - - -
28/08:00am 12.6 NE 10 12 1029.6 - 0.2 - - - - - - -
28/07:30am 11.9 ENE 9 10 1029.5 - 0.0 - - - - - - -
28/07:00am 10.8 ENE 8 9 1029.3 - 0.0 - - - - - - -
28/06:30am 10.3 NE 7 8 1029.2 - 0.0 - - - - - - -
28/06:00am 10.2 NE 7 8 1029.1 - 0.0 - - - - - - -
28/05:30am 10.3 NE 6 7 1028.9 - 0.0 - - - - - - -
28/05:00am 10.2 NE 7 8 1028.7 - 0.0 - - - - - - -
28/04:30am 10.4 NE 6 7 1028.7 - 0.0 - - - - - - -
28/04:00am 10.4 NE 8 9 1028.7 - 0.0 - - - - - - -
28/03:30am 10.6 NE 9 10 1028.6 - 0.0 - - - - - - -
28/03:00am 10.6 NE 8 9 1028.9 - 0.0 - - - - - - -
28/02:30am 10.7 NE 8 9 1028.9 - 0.0 - - - - - - -
28/02:00am 10.9 NE 10 11 1028.9 - 0.0 - - - - - - -
28/01:30am 11.0 NE 11 12 1029.0 - 0.0 - - - - - - -
28/01:00am 11.0 NE 10 11 1029.2 - 0.0 - - - - - - -
28/12:30am 11.1 NE 12 13 1029.1 - 0.0 - - - - - - -
28/12:00am 11.4 NE 12 14 1029.3 - 0.0 - - - - - - -
 
Date/Time
EST
Temp

°C
Wind Pressure Rain
since 9am
mm
Weather Cloud Vis
km
Sea
Height
m
Swell
Dir
 
Speed
knots
Gust
knots
hPa Trend Height
m
Period
s
Dir
27/11:30pm 11.2 NE 11 13 1029.3 - 0.0 - - - - - - -
27/11:00pm 11.4 NE 12 13 1029.2 - 0.0 - - - - - - -
27/10:30pm 11.1 ENE 11 12 1029.4 - 0.0 - - - - - - -
27/10:00pm 11.5 ENE 13 15 1029.2 - 0.0 - - - - - - -
27/09:30pm 11.5 ENE 15 17 1029.1 - 0.0 - - - - - - -
27/09:00pm 11.5 ENE 15 17 1029.1 - 0.0 - - - - - - -
27/08:30pm 11.6 ENE 17 18 1028.7 - 0.0 - - - - - - -
27/08:00pm 11.4 ENE 15 17 1028.6 - 0.0 - - - - - - -
27/07:30pm 11.3 ENE 12 14 1028.6 - 0.0 - - - - - - -
27/07:00pm 11.3 ENE 14 15 1028.4 - 0.0 - - - - - - -
27/06:30pm 11.4 NE 15 17 1028.4 - 0.0 - - - - - - -
27/06:00pm 11.6 NE 14 17 1028.4 - 0.0 - - - - - - -
27/05:30pm 11.9 NE 19 22 1027.5 - 0.0 - - - - - - -
27/05:00pm 12.1 ENE 17 20 1027.7 - 0.0 - - - - - - -
27/04:30pm 12.7 ENE 12 14 1028.3 - 0.0 - - - - - - -
27/04:00pm 13.4 ENE 12 14 1028.3 - 0.0 - - - - - - -
27/03:30pm 13.9 NE 14 17 1028.0 - 0.0 - - - - - - -
27/03:00pm 14.5 NE 13 15 1028.2 - 0.0 - - - - - - -
27/02:30pm 14.6 NE 17 21 1028.0 - 0.0 - - - - - - -
27/02:00pm 14.9 NE 15 20 1027.8 - 0.0 - - - - - - -
27/01:30pm 15.5 NNE 15 18 1027.9 - 0.0 - - - - - - -
27/01:00pm 15.0 NE 15 19 1028.0 - 0.0 - - - - - - -
27/12:30pm 15.0 NE 18 22 1028.2 - 0.0 - - - - - - -
27/12:00pm 15.1 NE 18 21 1028.7 - 0.0 - - - - - - -
27/11:30am 15.0 NE 19 23 1028.9 - 0.0 - - - - - - -
27/11:00am 15.1 NE 21 25 1028.7 - 0.0 - - - - - - -
27/10:30am 14.4 NE 21 26 1028.7 - 0.0 - - - - - - -
27/10:00am 14.4 NE 21 24 1028.7 - 0.0 - - - - - - -
27/09:30am 14.4 NE 20 24 1028.7 - 0.0 - - - - - - -
27/09:00am 13.9 NE 19 23 1029.0 - 0.0 - - - - - - -
27/08:30am 13.6 NE 17 20 1028.9 - 0.0 - - - - - - -
27/08:00am 13.0 NE 16 18 1028.7 - 0.0 - - - - - - -
27/07:30am 12.3 NE 16 19 1028.6 - 0.0 - - - - - - -
27/07:00am 11.7 NE 16 19 1028.3 - 0.0 - - - - - - -
27/06:30am 11.6 ENE 18 20 1027.9 - 0.0 - - - - - - -
27/06:00am 11.5 ENE 16 19 1027.9 - 0.0 - - - - - - -
27/05:30am 11.6 NE 17 19 1027.5 - 0.0 - - - - - - -
27/05:00am 11.7 NE 18 20 1027.3 - 0.0 - - - - - - -
27/04:30am 11.6 NE 18 23 1027.2 - 0.0 - - - - - - -
27/04:00am 11.6 NE 16 20 1027.3 - 0.0 - - - - - - -
27/03:30am 11.7 NE 17 20 1027.2 - 0.0 - - - - - - -
27/03:00am 11.9 NE 22 25 1027.1 - 0.0 - - - - - - -
27/02:30am 11.6 NE 17 19 1027.3 - 0.0 - - - - - - -
27/02:00am 11.6 NE 15 17 1027.7 - 0.0 - - - - - - -
27/01:30am 11.7 NE 17 19 1027.8 - 0.0 - - - - - - -
27/01:00am 11.8 ENE 18 21 1027.7 - 0.0 - - - - - - -
27/12:30am 11.7 ENE 19 22 1027.8 - 0.0 - - - - - - -
27/12:00am 11.9 ENE 18 21 1028.2 - 0.0 - - - - - - -
 
Date/Time
EST
Temp

°C
Wind Pressure Rain
since 9am
mm
Weather Cloud Vis
km
Sea
Height
m
Swell
Dir
 
Speed
knots
Gust
knots
hPa Trend Height
m
Period
s
Dir
26/11:30pm 11.8 ENE 18 20 1028.2 - 0.0 - - - - - - -
26/11:00pm 11.9 ENE 19 21 1028.2 - 0.0 - - - - - - -
26/10:30pm 11.9 ENE 17 20 1028.5 - 0.0 - - - - - - -
26/10:00pm 12.1 ENE 19 21 1028.5 - 0.0 - - - - - - -
26/09:30pm 12.3 ENE 20 23 1028.6 - 0.0 - - - - - - -
26/09:00pm 12.6 E 20 24 1029.0 - 0.0 - - - - - - -
26/08:30pm 12.6 E 21 26 1028.9 - 0.0 - - - - - - -
26/08:00pm 12.4 E 20 24 1028.7 - 0.0 - - - - - - -
26/07:30pm 12.5 E 21 24 1028.5 - 0.0 - - - - - - -
26/07:00pm 12.4 E 20 24 1028.4 - 0.0 - - - - - - -
26/06:30pm 12.3 E 18 21 1028.3 - 0.0 - - - - - - -
26/06:00pm 12.2 E 17 19 1028.4 - 0.0 - - - - - - -
26/05:30pm 12.5 E 16 18 1028.2 - 0.0 - - - - - - -
26/05:00pm 12.7 E 15 17 1028.1 - 0.0 - - - - - - -
26/04:30pm 13.3 E 16 18 1028.0 - 0.0 - - - - - - -
26/04:00pm 13.8 E 16 18 1028.2 - 0.0 - - - - - - -
26/03:30pm 13.8 E 15 16 1028.2 - 0.0 - - - - - - -
26/03:00pm 13.8 E 14 16 1028.4 - 0.0 - - - - - - -
26/02:30pm 14.7 E 12 14 1028.3 - 0.0 - - - - - - -
26/02:00pm 15.0 E 12 15 1028.4 - 0.0 - - - - - - -
26/01:30pm 15.1 E 13 16 1028.5 - 0.0 - - - - - - -
26/01:00pm 15.5 E 14 18 1028.7 - 0.0 - - - - - - -
26/12:30pm 15.5 E 12 15 1029.1 - 0.0 - - - - - - -
26/12:00pm 15.9 E 14 17 1029.2 - 0.0 - - - - - - -
26/11:30am 15.4 ENE 17 19 1029.3 - 0.0 - - - - - - -
26/11:00am 15.3 ENE 18 23 1029.5 - 0.0 - - - - - - -
26/10:30am 14.8 E 19 25 1029.5 - 0.0 - - - - - - -
26/10:00am 14.2 E 18 22 1029.8 - 0.0 - - - - - - -
26/09:30am 14.0 E 17 21 1029.9 - 0.0 - - - - - - -
26/09:00am 13.5 E 16 20 1030.0 - 0.2 - - - - - - -
26/08:30am 13.5 E 14 16 1030.0 - 0.2 - - - - - - -
26/08:00am 13.1 E 17 20 1029.7 - 0.2 - - - - - - -
26/07:30am 12.8 E 15 16 1029.5 - 0.2 - - - - - - -
26/07:00am 12.2 E 14 16 1029.3 - 0.2 - - - - - - -
26/06:30am 12.1 E 14 16 1029.0 - 0.2 - - - - - - -
26/06:00am 12.0 E 13 14 1028.8 - 0.2 - - - - - - -
26/05:30am 12.2 ESE 12 13 1028.5 - 0.2 - - - - - - -
26/05:00am 12.2 ESE 13 14 1028.4 - 0.2 - - - - - - -
26/04:30am 12.4 E 13 15 1028.4 - 0.2 - - - - - - -
26/04:00am 12.4 E 12 15 1028.3 - 0.2 - - - - - - -
26/03:30am 12.4 E 12 14 1028.4 - 0.2 - - - - - - -
26/03:00am 12.3 E 12 13 1028.5 - 0.2 - - - - - - -
26/02:30am 12.4 E 13 15 1028.4 - 0.2 - - - - - - -
26/02:00am 12.2 E 13 15 1028.6 - 0.2 - - - - - - -
26/01:30am 12.3 E 13 15 1028.6 - 0.2 - - - - - - -
26/01:00am 12.3 ESE 12 14 1029.0 - 0.2 - - - - - - -
26/12:30am 12.3 ESE 13 15 1029.1 - 0.2 - - - - - - -
26/12:00am 11.9 ESE 13 15 1029.2 - 0.2 - - - - - - -
 
Date/Time
EST
Temp

°C
Wind Pressure Rain
since 9am
mm
Weather Cloud Vis
km
Sea
Height
m
Swell
Dir
 
Speed
knots
Gust
knots
hPa Trend Height
m
Period
s
Dir
25/11:30pm 11.6 SE 12 14 1029.2 - 0.2 - - - - - - -
25/11:00pm 11.5 SE 12 14 1029.1 - 0.2 - - - - - - -
25/10:30pm 11.4 ESE 13 15 1029.1 - 0.2 - - - - - - -
25/10:00pm 11.3 ESE 13 15 1029.0 - 0.2 - - - - - - -
25/09:30pm 11.2 SE 13 16 1029.1 - 0.2 - - - - - - -

Other Formats:

Comma delimited format used in spreadsheet applications
http://www.bom.gov.au/fwo/IDT60701/IDT60701.94949.axf

JavaScript Object Notation format (JSON) in row-major order
http://www.bom.gov.au/fwo/IDT60701/IDT60701.94949.json